Time;durP1;ratioP1;P1;durP2;ratioP2;P2;SDS_P1;SDS_P2;PMS_P1;PMS_P2;Temp;Humidity;BMP_temperature;BMP_pressure;BME280_temperature;BME280_humidity;BME280_pressure;Samples;Min_cycle;Max_cycle;Signal;HPM_P1;HPM_P2
2023/07/30 00:01:43;;;;;;;7.93;3.53;;;;;;;23.75;49.20;95087.19;4991372;28;20027;-79
2023/07/30 00:04:08;;;;;;;12.52;3.75;;;;;;;23.77;49.62;95085.69;4976389;28;20051;-79
2023/07/30 00:06:34;;;;;;;10.32;3.67;;;;;;;23.78;49.48;95097.31;4976046;28;20571;-79
2023/07/30 00:08:59;;;;;;;10.27;3.97;;;;;;;23.70;49.84;95092.91;4976228;28;20057;-79
2023/07/30 00:11:25;;;;;;;4.72;3.17;;;;;;;23.73;49.42;95095.66;4990908;28;20023;-79
2023/07/30 00:13:50;;;;;;;12.45;4.00;;;;;;;23.43;50.06;95060.25;4952691;28;20051;-79
2023/07/30 00:16:15;;;;;;;8.60;3.67;;;;;;;23.60;49.72;95090.75;4951781;28;20073;-79
2023/07/30 00:18:41;;;;;;;7.43;3.40;;;;;;;23.37;49.99;95047.38;4974818;28;20415;-79
2023/07/30 00:21:06;;;;;;;7.82;3.60;;;;;;;23.41;50.27;95076.09;4979772;28;20111;-79
2023/07/30 00:23:32;;;;;;;7.57;3.83;;;;;;;23.23;50.74;95085.00;4969836;28;20030;-79
2023/07/30 00:25:57;;;;;;;5.88;3.63;;;;;;;23.12;51.26;95086.69;4956158;28;20039;-79
2023/07/30 00:28:23;;;;;;;11.27;3.22;;;;;;;22.99;51.19;95051.66;4976392;28;20035;-79
2023/07/30 00:30:48;;;;;;;7.63;3.92;;;;;;;22.99;52.07;95091.44;4974634;28;20179;-79
2023/07/30 00:33:13;;;;;;;7.60;3.10;;;;;;;22.99;51.87;95075.22;4957369;28;20463;-79
2023/07/30 00:35:39;;;;;;;6.88;3.88;;;;;;;22.91;52.00;95066.16;4976580;28;20057;-79
2023/07/30 00:38:04;;;;;;;7.60;4.10;;;;;;;22.83;52.23;95075.28;4977037;28;20042;-79
2023/07/30 00:40:30;;;;;;;5.82;3.40;;;;;;;22.59;52.25;95037.63;4992122;28;20023;-79
2023/07/30 00:42:55;;;;;;;9.65;3.85;;;;;;;22.70;52.33;95039.44;4991360;28;20034;-79
2023/07/30 00:45:21;;;;;;;6.95;3.33;;;;;;;22.75;52.73;95064.66;4959089;28;20500;-79
2023/07/30 00:47:47;;;;;;;7.32;3.35;;;;;;;22.74;52.43;95054.97;4959131;28;20481;-79
2023/07/30 00:50:14;;;;;;;6.05;3.80;;;;;;;22.59;52.66;95049.22;4957992;28;20031;-79
2023/07/30 00:52:40;;;;;;;7.25;3.63;;;;;;;22.38;53.16;95054.16;4958235;28;20107;-79
2023/07/30 00:55:07;;;;;;;7.20;3.80;;;;;;;22.26;53.14;95041.53;4958730;28;20471;-79
2023/07/30 00:57:34;;;;;;;9.20;3.80;;;;;;;22.67;53.03;95082.59;4976606;28;20405;-79
2023/07/30 01:00:03;;;;;;;6.68;3.80;;;;;;;22.59;52.60;95051.16;4958756;28;20045;-79
2023/07/30 01:02:29;;;;;;;6.68;3.47;;;;;;;22.67;52.65;95058.28;4975767;28;20050;-79
2023/07/30 01:04:56;;;;;;;9.50;3.45;;;;;;;22.79;52.02;95085.22;4948801;28;20043;-79
2023/07/30 01:07:21;;;;;;;7.25;4.07;;;;;;;22.77;51.88;95063.16;4975860;28;20029;-79
2023/07/30 01:09:47;;;;;;;9.65;4.00;;;;;;;22.73;52.43;95070.41;4994388;28;20039;-79
2023/07/30 01:12:14;;;;;;;6.70;3.60;;;;;;;22.83;52.73;95088.00;4976808;28;20034;-79
2023/07/30 01:14:40;;;;;;;6.10;3.55;;;;;;;22.64;52.58;95094.13;4976373;28;20039;-79
2023/07/30 01:17:05;;;;;;;7.68;3.70;;;;;;;22.72;52.68;95090.47;4977626;28;20030;-79
2023/07/30 01:19:31;;;;;;;5.25;3.83;;;;;;;22.26;51.81;95017.22;4975765;28;20039;-79
2023/07/30 01:21:57;;;;;;;6.97;3.83;;;;;;;22.51;52.65;95066.41;4993946;28;20077;-79
2023/07/30 01:24:23;;;;;;;11.15;5.07;;;;;;;22.61;51.91;95089.41;4992962;28;20062;-79
2023/07/30 01:26:56;;;;;;;10.05;3.53;;;;;;;22.71;51.93;95095.06;4976960;28;20023;-79
2023/07/30 01:29:29;;;;;;;6.47;3.55;;;;;;;22.65;51.69;95069.47;4977113;28;20064;-79
2023/07/30 01:32:03;;;;;;;8.98;3.90;;;;;;;22.59;51.67;95072.75;4976889;28;20110;-79
2023/07/30 01:34:32;;;;;;;8.25;4.00;;;;;;;22.81;51.62;95085.66;4993690;28;20046;-79
2023/07/30 01:36:58;;;;;;;10.82;4.65;;;;;;;22.73;51.28;95075.81;4977599;28;20026;-79
2023/07/30 01:39:24;;;;;;;6.68;3.90;;;;;;;22.76;51.12;95083.22;4993772;28;20031;-79
2023/07/30 01:41:50;;;;;;;11.30;4.60;;;;;;;22.67;51.12;95079.91;4993952;28;20046;-79
2023/07/30 01:44:15;;;;;;;8.15;4.25;;;;;;;22.66;51.75;95084.50;4993222;28;20037;-79
2023/07/30 01:46:40;;;;;;;6.90;4.30;;;;;;;22.61;51.62;95065.09;4976713;28;20042;-79
2023/07/30 01:49:06;;;;;;;6.57;4.00;;;;;;;22.74;51.62;95096.31;5008654;28;20035;-79
2023/07/30 01:51:31;;;;;;;10.15;3.60;;;;;;;22.61;51.99;95084.00;4993783;28;20086;-79
2023/07/30 01:53:57;;;;;;;8.95;3.22;;;;;;;22.63;51.60;95084.44;4993301;28;20046;-79
2023/07/30 01:56:22;;;;;;;8.18;3.88;;;;;;;22.28;51.88;95043.88;4987815;28;20054;-79
2023/07/30 01:58:47;;;;;;;8.43;3.75;;;;;;;22.51;51.39;95071.03;4976892;28;20100;-79
2023/07/30 02:01:13;;;;;;;5.93;3.75;;;;;;;22.52;52.30;95078.00;5036878;28;20042;-79
2023/07/30 02:03:38;;;;;;;9.02;3.97;;;;;;;22.56;52.02;95093.19;4986106;28;20031;-79
2023/07/30 02:06:04;;;;;;;8.60;3.63;;;;;;;22.36;52.85;95090.75;5007763;28;20046;-79
2023/07/30 02:08:29;;;;;;;7.43;3.75;;;;;;;22.18;53.04;95093.84;4993344;28;20035;-79
2023/07/30 02:10:58;;;;;;;6.45;3.47;;;;;;;22.11;53.44;95098.28;5008528;28;20061;-79
2023/07/30 02:13:24;;;;;;;7.00;3.60;;;;;;;22.13;53.45;95094.06;4975630;28;20064;-79
2023/07/30 02:15:50;;;;;;;8.13;3.58;;;;;;;22.15;53.25;95082.94;4966459;28;20039;-77
2023/07/30 02:18:15;;;;;;;9.55;3.90;;;;;;;21.94;53.66;95065.03;4951246;28;20092;-76
2023/07/30 02:20:41;;;;;;;4.40;3.17;;;;;;;22.08;53.80;95090.84;4951762;28;20038;-77
2023/07/30 02:23:07;;;;;;;7.68;3.60;;;;;;;22.10;53.15;95083.97;4965104;28;20037;-77
2023/07/30 02:25:32;;;;;;;7.72;3.40;;;;;;;21.85;53.37;95047.44;4950740;28;20112;-77
2023/07/30 02:28:00;;;;;;;12.55;3.30;;;;;;;22.19;53.59;95110.81;4983471;28;20436;-76
2023/07/30 02:30:26;;;;;;;6.15;3.35;;;;;;;22.17;53.67;95111.16;4951163;28;20035;-76
2023/07/30 02:32:51;;;;;;;12.45;4.47;;;;;;;22.22;53.63;95113.59;4968885;28;20041;-77
2023/07/30 02:35:17;;;;;;;6.10;3.17;;;;;;;22.15;53.62;95096.44;4977889;28;20035;-79
2023/07/30 02:37:42;;;;;;;13.75;3.92;;;;;;;22.28;53.37;95114.91;4948291;28;20037;-79
2023/07/30 02:40:08;;;;;;;8.75;3.50;;;;;;;22.16;53.49;95106.88;4965278;28;20099;-79
2023/07/30 02:42:34;;;;;;;7.88;3.97;;;;;;;21.85;54.54;95101.44;5004601;28;20039;-79
2023/07/30 02:45:01;;;;;;;5.97;3.58;;;;;;;21.90;54.44;95115.44;4951684;28;20049;-79
2023/07/30 02:47:27;;;;;;;5.10;3.28;;;;;;;21.92;54.47;95112.41;4956716;28;20495;-79
2023/07/30 02:49:52;;;;;;;7.30;3.78;;;;;;;21.75;54.29;95074.94;4956957;28;20074;-79
2023/07/30 02:52:17;;;;;;;7.00;3.55;;;;;;;21.87;54.07;95083.75;4956953;28;20165;-79
2023/07/30 02:54:43;;;;;;;6.95;4.07;;;;;;;21.95;54.52;95114.44;4956824;28;20121;-79
2023/07/30 02:57:08;;;;;;;7.07;3.72;;;;;;;21.91;54.56;95117.03;4956451;28;20046;-79
2023/07/30 02:59:35;;;;;;;8.18;3.42;;;;;;;21.73;54.67;95093.41;4972183;28;20066;-79
2023/07/30 03:02:02;;;;;;;4.93;3.38;;;;;;;21.79;54.48;95100.13;4958438;28;20058;-79
2023/07/30 03:04:27;;;;;;;7.15;3.60;;;;;;;21.65;55.16;95114.03;4955110;28;20041;-79
2023/07/30 03:06:53;;;;;;;4.90;3.45;;;;;;;21.43;55.97;95109.97;4988520;28;20031;-79
2023/07/30 03:09:18;;;;;;;5.57;3.75;;;;;;;21.46;55.95;95111.19;4952090;28;20046;-79
2023/07/30 03:11:43;;;;;;;7.47;4.13;;;;;;;21.65;55.29;95107.84;4949161;28;20027;-79
2023/07/30 03:14:09;;;;;;;9.55;3.90;;;;;;;21.76;54.90;95117.00;4959952;28;20138;-79
2023/07/30 03:16:34;;;;;;;10.60;4.10;;;;;;;21.56;54.78;95105.31;4977022;28;20070;-79
2023/07/30 03:19:00;;;;;;;12.07;4.25;;;;;;;21.76;55.02;95127.78;4959203;28;20126;-79
2023/07/30 03:21:25;;;;;;;6.85;4.15;;;;;;;21.82;54.82;95129.91;4980501;28;20077;-79
2023/07/30 03:23:50;;;;;;;4.90;3.30;;;;;;;21.45;55.06;95093.41;4953873;28;20042;-79
2023/07/30 03:26:16;;;;;;;5.97;3.45;;;;;;;21.55;54.97;95096.41;4960345;28;20107;-79
2023/07/30 03:28:41;;;;;;;6.47;4.10;;;;;;;21.61;55.13;95109.66;4977288;28;20103;-79
2023/07/30 03:31:07;;;;;;;7.90;3.85;;;;;;;21.74;54.96;95122.72;4992065;28;20111;-79
2023/07/30 03:33:33;;;;;;;11.98;3.55;;;;;;;21.84;54.28;95133.03;4992657;28;20416;-79
2023/07/30 03:35:59;;;;;;;7.03;3.85;;;;;;;21.63;54.58;95116.28;4976832;28;20113;-79
2023/07/30 03:38:24;;;;;;;6.03;3.83;;;;;;;21.15;54.71;95049.81;4959571;28;20177;-79
2023/07/30 03:40:49;;;;;;;9.32;3.47;;;;;;;21.50;54.65;95114.78;4960162;28;20031;-79
2023/07/30 03:43:15;;;;;;;7.95;3.83;;;;;;;21.66;54.34;95129.09;4959489;28;20096;-79
2023/07/30 03:45:41;;;;;;;10.07;3.55;;;;;;;21.48;54.34;95109.72;4964158;28;20027;-79
2023/07/30 03:48:06;;;;;;;4.70;3.22;;;;;;;21.51;54.85;95135.25;4977683;28;20035;-79
2023/07/30 03:50:32;;;;;;;9.43;4.07;;;;;;;21.65;54.37;95122.13;4977620;28;20015;-79
2023/07/30 03:52:57;;;;;;;7.25;3.47;;;;;;;21.57;54.00;95101.47;4978412;28;20046;-79
2023/07/30 03:55:23;;;;;;;4.82;3.28;;;;;;;21.53;53.83;95095.97;4995328;28;20039;-79
2023/07/30 03:57:49;;;;;;;12.00;4.28;;;;;;;21.69;52.81;95109.50;4997286;28;20027;-79
2023/07/30 04:00:15;;;;;;;6.85;3.22;;;;;;;21.58;52.87;95102.25;4969398;28;20049;-79
2023/07/30 04:02:40;;;;;;;6.07;3.40;;;;;;;21.90;52.71;95144.38;5009232;28;20172;-79
2023/07/30 04:05:06;;;;;;;4.95;3.35;;;;;;;21.83;52.49;95115.28;4977429;28;20034;-78
2023/07/30 04:07:31;;;;;;;12.25;3.90;;;;;;;21.78;52.55;95107.44;5009891;28;20034;-78
2023/07/30 04:09:56;;;;;;;7.47;3.50;;;;;;;21.94;52.22;95132.53;4993725;28;20061;-78
2023/07/30 04:12:22;;;;;;;7.00;3.60;;;;;;;22.06;52.00;95147.91;5010406;28;20030;-78
2023/07/30 04:14:48;;;;;;;7.28;3.08;;;;;;;21.83;52.62;95123.38;5055866;28;20061;-78
2023/07/30 04:17:13;;;;;;;5.20;3.55;;;;;;;21.65;52.82;95086.25;5071765;28;20044;-78
2023/07/30 04:19:39;;;;;;;9.30;3.90;;;;;;;21.90;52.74;95137.06;5055228;28;20017;-78
2023/07/30 04:22:04;;;;;;;6.53;3.80;;;;;;;21.89;52.84;95129.31;5056947;28;20044;-79
2023/07/30 04:24:30;;;;;;;6.00;3.58;;;;;;;21.96;52.97;95137.59;5054081;28;20026;-78
2023/07/30 04:26:55;;;;;;;9.82;3.67;;;;;;;21.87;52.71;95124.25;5052729;28;20022;-79
2023/07/30 04:29:20;;;;;;;5.43;3.30;;;;;;;21.95;52.89;95146.84;5088735;28;20026;-78
2023/07/30 04:31:46;;;;;;;7.20;3.75;;;;;;;21.80;52.47;95107.88;5054601;28;20036;-78
2023/07/30 04:34:11;;;;;;;8.27;3.15;;;;;;;21.92;52.24;95121.28;5056219;28;20017;-78
2023/07/30 04:36:37;;;;;;;5.65;3.40;;;;;;;22.11;52.38;95150.38;5055185;28;20048;-79
2023/07/30 04:39:02;;;;;;;5.47;3.63;;;;;;;22.04;52.07;95120.50;5055453;28;20018;-78
2023/07/30 04:41:28;;;;;;;8.02;4.22;;;;;;;22.02;52.08;95128.16;5053930;28;20144;-79
2023/07/30 04:43:53;;;;;;;5.85;3.60;;;;;;;22.04;52.28;95125.09;5054640;28;20029;-78
2023/07/30 04:46:19;;;;;;;12.20;3.83;;;;;;;22.25;51.98;95150.72;5054651;28;20057;-79
2023/07/30 04:48:44;;;;;;;10.18;4.05;;;;;;;22.05;52.81;95151.72;5087832;28;20041;-78
2023/07/30 04:51:09;;;;;;;8.98;3.70;;;;;;;22.10;52.79;95129.09;5049139;28;20022;-79
2023/07/30 04:53:35;;;;;;;6.07;4.10;;;;;;;22.09;51.92;95120.22;5052829;28;20029;-78
2023/07/30 04:56:00;;;;;;;4.82;3.63;;;;;;;22.16;51.49;95127.72;5051359;28;20149;-79
2023/07/30 04:58:26;;;;;;;4.32;3.10;;;;;;;22.12;51.32;95118.75;5086001;28;20037;-78
2023/07/30 05:00:51;;;;;;;4.47;2.83;;;;;;;22.30;51.30;95142.34;5084560;28;20032;-78
2023/07/30 05:03:17;;;;;;;5.47;2.85;;;;;;;22.32;51.51;95142.81;5053103;28;20037;-78
2023/07/30 05:05:42;;;;;;;6.20;3.58;;;;;;;22.25;51.23;95121.00;5072457;28;20038;-78
2023/07/30 05:08:08;;;;;;;4.65;3.53;;;;;;;22.48;51.04;95147.41;5051611;28;20079;-78
2023/07/30 05:10:33;;;;;;;4.88;2.92;;;;;;;22.58;50.90;95147.66;5053369;28;20029;-78
2023/07/30 05:12:59;;;;;;;6.68;3.65;;;;;;;22.64;50.62;95157.09;5053978;28;20057;-78
2023/07/30 05:15:24;;;;;;;6.65;3.63;;;;;;;22.68;50.99;95152.53;5077234;28;20057;-79
2023/07/30 05:17:50;;;;;;;7.43;3.90;;;;;;;22.31;51.09;95110.72;5052749;28;20041;-78
2023/07/30 05:20:16;;;;;;;4.45;3.50;;;;;;;22.52;51.06;95126.66;5086679;28;20026;-78
2023/07/30 05:22:41;;;;;;;6.95;3.67;;;;;;;22.60;50.94;95137.28;5051494;28;20087;-78
2023/07/30 05:25:07;;;;;;;11.45;3.78;;;;;;;22.44;51.76;95119.50;5053478;28;20041;-78
2023/07/30 05:27:32;;;;;;;7.78;4.78;;;;;;;22.40;52.39;95110.53;5046607;28;20017;-78
2023/07/30 05:29:58;;;;;;;8.52;4.30;;;;;;;22.76;52.11;95152.72;5053986;28;20041;-78
2023/07/30 05:32:23;;;;;;;8.98;3.95;;;;;;;22.56;51.81;95117.50;5051366;28;20085;-78
2023/07/30 05:34:49;;;;;;;9.70;4.30;;;;;;;22.63;52.05;95114.97;5054262;28;20088;-79
2023/07/30 05:37:14;;;;;;;6.15;4.22;;;;;;;22.84;51.75;95151.75;5054330;28;20044;-79
2023/07/30 05:39:40;;;;;;;5.93;3.85;;;;;;;22.86;51.52;95147.56;5053419;28;20072;-78
2023/07/30 05:42:05;;;;;;;11.15;4.10;;;;;;;22.82;51.53;95140.50;5045693;28;20037;-79
2023/07/30 05:44:31;;;;;;;9.93;4.20;;;;;;;22.83;51.83;95145.56;5052375;28;20036;-78
2023/07/30 05:46:56;;;;;;;7.22;4.50;;;;;;;22.96;51.74;95160.53;5051970;28;20053;-79
2023/07/30 05:49:21;;;;;;;6.88;4.05;;;;;;;22.96;51.43;95140.84;5053831;28;20037;-79
2023/07/30 05:51:47;;;;;;;7.63;4.10;;;;;;;22.94;51.51;95135.78;5048724;28;20396;-79
2023/07/30 05:54:13;;;;;;;13.02;4.93;;;;;;;22.86;51.68;95146.78;5052149;28;20072;-78
2023/07/30 05:56:38;;;;;;;5.95;4.35;;;;;;;22.98;51.34;95133.16;5053526;28;20060;-78
2023/07/30 05:59:03;;;;;;;10.65;4.13;;;;;;;23.13;50.84;95147.75;5086510;28;20033;-78
2023/07/30 06:01:29;;;;;;;12.25;4.70;;;;;;;23.05;50.96;95144.91;5053183;28;20017;-79
2023/07/30 06:03:54;;;;;;;10.15;4.60;;;;;;;23.09;51.31;95153.09;5051384;28;20026;-79
2023/07/30 06:06:26;;;;;;;15.75;5.35;;;;;;;23.02;50.70;95142.13;5039605;28;20032;-77
2023/07/30 06:08:52;;;;;;;9.60;5.22;;;;;;;23.26;51.28;95163.53;5062087;28;20026;-76
2023/07/30 06:11:18;;;;;;;8.95;4.55;;;;;;;23.28;51.02;95155.03;5023600;28;20120;-76
2023/07/30 06:13:43;;;;;;;9.50;4.68;;;;;;;23.23;51.54;95158.03;5020524;28;20136;-76
2023/07/30 06:16:09;;;;;;;14.52;5.28;;;;;;;22.92;51.03;95094.78;4968744;28;20023;-76
2023/07/30 06:18:35;;;;;;;14.63;4.47;;;;;;;23.16;50.31;95120.00;4951419;28;20104;-76
2023/07/30 06:21:01;;;;;;;8.57;4.68;;;;;;;23.33;49.72;95144.75;4951422;28;20505;-76
2023/07/30 06:23:26;;;;;;;10.20;5.32;;;;;;;23.36;49.89;95151.34;4951306;28;20092;-76
2023/07/30 06:25:52;;;;;;;15.73;4.47;;;;;;;23.52;49.79;95162.94;4983774;28;20027;-75
2023/07/30 06:28:17;;;;;;;12.85;4.50;;;;;;;23.60;49.55;95161.16;4968143;28;20456;-77
2023/07/30 06:30:42;;;;;;;6.97;5.00;;;;;;;23.38;49.39;95122.81;4969048;28;20037;-76
2023/07/30 06:33:08;;;;;;;11.82;4.18;;;;;;;23.59;48.76;95135.22;4968179;28;20070;-76
2023/07/30 06:35:34;;;;;;;9.38;4.50;;;;;;;23.22;48.36;95059.06;4971924;28;20386;-76
2023/07/30 06:37:59;;;;;;;5.70;4.35;;;;;;;23.72;48.87;95148.28;4951622;28;20054;-76
2023/07/30 06:40:25;;;;;;;11.82;4.90;;;;;;;23.62;48.08;95131.81;4951423;28;20037;-76
2023/07/30 06:42:50;;;;;;;10.52;4.63;;;;;;;23.77;47.69;95133.66;4968729;28;20058;-76
2023/07/30 06:45:16;;;;;;;14.10;4.70;;;;;;;23.95;47.55;95140.19;4968232;28;20035;-76
2023/07/30 06:47:41;;;;;;;17.33;4.65;;;;;;;23.84;47.35;95110.19;4951548;28;20048;-76
2023/07/30 06:50:08;;;;;;;11.57;4.93;;;;;;;23.71;47.07;95113.44;4968502;28;20043;-76
2023/07/30 06:52:35;;;;;;;11.43;4.38;;;;;;;23.88;47.21;95118.38;4968339;28;20115;-76
2023/07/30 06:55:01;;;;;;;8.35;3.88;;;;;;;24.04;46.77;95127.16;4950980;28;20069;-78
2023/07/30 06:57:26;;;;;;;8.70;4.25;;;;;;;23.85;47.60;95117.19;4987372;28;20042;-79
2023/07/30 06:59:51;;;;;;;10.45;3.85;;;;;;;24.07;47.45;95126.47;4973441;28;20031;-78
2023/07/30 07:02:17;;;;;;;8.13;4.40;;;;;;;24.08;47.50;95128.03;5006375;28;20023;-79
2023/07/30 07:04:42;;;;;;;8.13;4.50;;;;;;;24.12;47.04;95112.59;4986829;28;20038;-79
2023/07/30 07:07:08;;;;;;;11.48;4.00;;;;;;;24.11;46.71;95097.50;4989180;28;20027;-78
2023/07/30 07:09:33;;;;;;;12.82;4.60;;;;;;;24.20;46.64;95116.25;4996018;28;20042;-79
2023/07/30 07:11:59;;;;;;;16.83;4.15;;;;;;;24.26;46.81;95106.66;4990479;28;20114;-79
2023/07/30 07:14:25;;;;;;;11.25;3.75;;;;;;;24.21;45.38;95091.50;4973217;28;20058;-79
2023/07/30 07:16:51;;;;;;;5.72;3.78;;;;;;;24.36;45.36;95092.53;4956689;28;20038;-76
2023/07/30 07:19:17;;;;;;;7.93;3.90;;;;;;;24.58;45.39;95105.25;4950757;28;20500;-76
2023/07/30 07:21:42;;;;;;;5.78;3.70;;;;;;;24.28;45.38;95060.25;4982786;28;20050;-76
2023/07/30 07:24:08;;;;;;;10.90;4.10;;;;;;;24.55;44.63;95097.88;4983101;28;20050;-76
2023/07/30 07:26:33;;;;;;;10.85;4.00;;;;;;;24.61;44.38;95085.56;4967686;28;20035;-76
2023/07/30 07:28:59;;;;;;;7.35;3.55;;;;;;;24.67;44.42;95085.25;4968397;28;20468;-77
2023/07/30 07:31:24;;;;;;;9.25;3.95;;;;;;;24.80;43.74;95090.09;4982844;28;20039;-76
2023/07/30 07:33:51;;;;;;;7.38;3.38;;;;;;;24.76;43.64;95077.63;4982673;28;20039;-76
2023/07/30 07:36:16;;;;;;;9.38;3.60;;;;;;;24.70;43.74;95052.78;4950312;28;20062;-77
2023/07/30 07:38:42;;;;;;;9.32;3.83;;;;;;;24.81;43.93;95072.66;4967338;28;20081;-76
2023/07/30 07:41:07;;;;;;;13.93;5.13;;;;;;;25.02;43.89;95074.94;4967539;28;20035;-76
2023/07/30 07:43:33;;;;;;;8.95;3.92;;;;;;;24.78;44.05;95067.22;4982466;28;20039;-76
2023/07/30 07:45:58;;;;;;;10.88;4.43;;;;;;;24.90;43.46;95073.22;4967350;28;20089;-77
2023/07/30 07:48:23;;;;;;;8.65;4.00;;;;;;;24.96;43.17;95060.09;4968268;28;20038;-76
2023/07/30 07:50:49;;;;;;;10.70;4.07;;;;;;;24.97;43.48;95064.38;4968243;28;20045;-76
2023/07/30 07:53:15;;;;;;;13.98;4.40;;;;;;;24.91;43.61;95034.09;4967510;28;20062;-77
2023/07/30 07:55:40;;;;;;;9.70;4.30;;;;;;;24.76;43.83;95015.25;4968492;28;20125;-77
2023/07/30 07:58:06;;;;;;;8.57;4.88;;;;;;;24.99;43.02;95049.31;4971460;28;20132;-76
2023/07/30 08:00:31;;;;;;;11.73;4.28;;;;;;;25.13;42.63;95054.13;4953656;28;20031;-76
2023/07/30 08:02:56;;;;;;;9.60;4.25;;;;;;;25.11;42.93;95036.66;4985885;28;20039;-77
2023/07/30 08:05:24;;;;;;;6.25;3.92;;;;;;;25.41;42.53;95069.19;4971122;28;20108;-77
2023/07/30 08:07:50;;;;;;;7.53;4.10;;;;;;;25.30;42.24;95044.66;4986655;28;20148;-77
2023/07/30 08:10:16;;;;;;;10.02;4.07;;;;;;;25.37;41.27;95042.81;4987085;28;20042;-76
2023/07/30 08:12:42;;;;;;;9.73;4.07;;;;;;;25.66;41.50;95067.56;4986890;28;20054;-76
2023/07/30 08:15:07;;;;;;;9.38;3.80;;;;;;;25.75;41.50;95065.34;4972124;28;20057;-76
2023/07/30 08:17:33;;;;;;;7.32;4.20;;;;;;;25.71;41.72;95050.94;4971313;28;20039;-77
2023/07/30 08:19:58;;;;;;;11.82;4.05;;;;;;;25.86;41.41;95063.50;4986617;28;20031;-76
2023/07/30 08:22:24;;;;;;;9.60;4.30;;;;;;;25.79;40.16;95049.06;4973860;28;20043;-76
2023/07/30 08:24:49;;;;;;;5.65;3.63;;;;;;;26.01;39.69;95062.50;4965948;28;20043;-76
2023/07/30 08:27:14;;;;;;;7.15;3.47;;;;;;;25.90;39.43;95039.88;4959846;28;20041;-78
2023/07/30 08:29:40;;;;;;;7.05;4.43;;;;;;;26.08;39.96;95054.41;4958183;28;20525;-79
2023/07/30 08:32:06;;;;;;;7.05;3.40;;;;;;;25.98;40.48;95022.47;4959631;28;20045;-79
2023/07/30 08:34:32;;;;;;;8.75;3.72;;;;;;;26.13;39.09;95045.13;4976425;28;20046;-79
2023/07/30 08:36:57;;;;;;;4.97;3.72;;;;;;;26.24;39.65;95046.00;4959756;28;20089;-79
2023/07/30 08:39:22;;;;;;;7.75;3.95;;;;;;;25.98;40.17;95000.75;4978214;28;20046;-79
2023/07/30 08:41:48;;;;;;;6.88;3.90;;;;;;;26.39;40.17;95039.53;4960770;28;20420;-79
2023/07/30 08:44:14;;;;;;;7.07;3.63;;;;;;;26.38;39.94;95027.09;4977287;28;20050;-79
2023/07/30 08:46:40;;;;;;;9.05;3.63;;;;;;;26.49;40.07;95029.88;4971740;28;20035;-79
2023/07/30 08:49:05;;;;;;;4.88;3.28;;;;;;;26.46;39.77;95014.34;4971262;28;20131;-79
2023/07/30 08:51:33;;;;;;;8.43;3.80;;;;;;;26.71;40.21;95036.22;4958900;28;20027;-79
2023/07/30 08:54:00;;;;;;;5.38;3.58;;;;;;;26.37;39.62;94986.69;4961794;28;20047;-79
2023/07/30 08:56:26;;;;;;;6.80;3.67;;;;;;;26.56;39.08;94991.84;4990757;28;20042;-79
2023/07/30 08:58:57;;;;;;;8.55;4.10;;;;;;;26.57;39.03;94992.63;4974495;28;20043;-79
2023/07/30 09:01:26;;;;;;;8.65;3.53;;;;;;;26.76;39.19;95006.75;4974571;28;20039;-79
2023/07/30 09:03:53;;;;;;;5.10;3.45;;;;;;;26.88;38.93;95021.97;4965105;28;20050;-78
2023/07/30 09:06:18;;;;;;;6.88;3.30;;;;;;;26.87;38.48;95018.44;4977170;28;20043;-79
2023/07/30 09:08:43;;;;;;;8.63;3.63;;;;;;;27.05;38.34;95018.56;4966602;28;20382;-79
2023/07/30 09:11:10;;;;;;;4.93;3.47;;;;;;;26.92;38.30;94997.53;4960662;28;20504;-79
2023/07/30 09:13:41;;;;;;;5.30;3.55;;;;;;;27.19;38.20;95006.97;4958772;28;20065;-79
2023/07/30 09:16:11;;;;;;;6.80;3.60;;;;;;;27.02;36.69;95000.28;4984442;28;20035;-78
2023/07/30 09:18:44;;;;;;;4.23;3.37;;;;;;;27.19;37.03;95017.84;4975631;28;20038;-78
2023/07/30 09:21:11;;;;;;;8.00;3.70;;;;;;;27.05;36.81;94996.81;4976922;28;20038;-79
2023/07/30 09:23:44;;;;;;;8.63;3.42;;;;;;;27.22;36.11;95011.66;4952729;28;20053;-78
2023/07/30 09:26:10;;;;;;;7.03;3.88;;;;;;;27.23;35.65;94999.59;4959382;28;20406;-79
2023/07/30 09:28:36;;;;;;;6.82;3.90;;;;;;;27.32;35.69;94997.28;4978724;28;20038;-79
2023/07/30 09:31:07;;;;;;;12.85;3.28;;;;;;;27.23;34.73;94975.88;4961740;28;20088;-78
2023/07/30 09:33:34;;;;;;;7.38;3.55;;;;;;;27.47;34.77;94995.38;4976663;28;20454;-79
2023/07/30 09:36:03;;;;;;;7.63;3.80;;;;;;;27.44;33.98;94980.59;4969156;28;20389;-77
2023/07/30 09:38:32;;;;;;;5.38;3.40;;;;;;;27.54;33.55;94992.72;4963390;28;20029;-77
2023/07/30 09:41:02;;;;;;;5.07;3.45;;;;;;;27.58;33.48;94974.41;4952784;28;20042;-76
2023/07/30 09:43:35;;;;;;;4.68;3.42;;;;;;;27.76;32.93;94986.13;4953234;28;20068;-76
2023/07/30 09:46:06;;;;;;;6.15;3.38;;;;;;;27.69;31.96;94986.13;4985444;28;20122;-76
2023/07/30 09:48:32;;;;;;;;;;;;;;;27.69;32.09;94983.41;4953117;28;20420;-76
2023/07/30 09:51:03;;;;;;;5.65;3.60;;;;;;;27.69;32.87;94979.91;4949850;28;19932;-77
2023/07/30 09:53:36;;;;;;;6.65;3.60;;;;;;;27.89;33.00;94979.13;4953485;28;20042;-77
2023/07/30 09:56:08;;;;;;;6.72;3.42;;;;;;;28.37;32.07;94965.13;4970839;28;20027;-76
2023/07/30 09:58:36;;;;;;;5.00;3.42;;;;;;;29.02;31.65;94939.97;4985415;28;20468;-76
2023/07/30 10:01:04;;;;;;;3.95;3.03;;;;;;;30.02;30.14;94947.59;4952881;28;20042;-76
2023/07/30 10:03:33;;;;;;;5.15;3.63;;;;;;;30.96;28.62;94944.31;4971349;28;20047;-76
2023/07/30 10:06:02;;;;;;;4.32;3.08;;;;;;;32.11;27.45;94969.75;4970141;28;20404;-77
2023/07/30 10:08:31;;;;;;;8.35;3.60;;;;;;;32.98;25.81;94968.59;4953031;28;20100;-76
2023/07/30 10:10:58;;;;;;;4.13;2.95;;;;;;;33.76;25.00;94956.00;4970024;28;20042;-76
2023/07/30 10:13:25;;;;;;;5.85;2.97;;;;;;;34.11;23.99;94946.13;4952582;28;20037;-77
2023/07/30 10:15:51;;;;;;;6.25;2.95;;;;;;;34.90;23.26;94948.44;4953196;28;20138;-77
2023/07/30 10:18:16;;;;;;;7.35;3.00;;;;;;;35.30;22.51;94937.09;4970272;28;20069;-77
2023/07/30 10:20:52;;;;;;;7.80;3.42;;;;;;;35.46;22.11;94924.00;4952264;28;20493;-79
2023/07/30 10:23:17;;;;;;;6.32;3.33;;;;;;;35.75;21.79;94920.38;4937337;28;20035;-77
2023/07/30 10:25:46;;;;;;;3.55;2.90;;;;;;;36.30;21.59;94941.09;4986140;28;20030;-77
2023/07/30 10:28:33;;;;;;;8.10;3.00;;;;;;;36.90;21.77;94932.72;4984191;28;20053;-76
2023/07/30 10:31:09;;;;;;;5.30;3.30;;;;;;;36.95;21.10;94901.72;4951856;28;20062;-77
2023/07/30 10:33:53;;;;;;;5.97;3.15;;;;;;;37.40;20.92;94910.31;4942544;29;20039;-77
2023/07/30 10:36:43;;;;;;;5.88;3.03;;;;;;;37.59;20.30;94915.97;4965429;28;20096;-77
2023/07/30 10:39:18;;;;;;;4.43;2.85;;;;;;;37.46;20.07;94925.06;4942252;28;20557;-77
2023/07/30 10:41:55;;;;;;;5.88;3.50;;;;;;;37.53;20.41;94904.69;4980970;28;20031;-77
2023/07/30 10:44:24;;;;;;;7.97;3.63;;;;;;;37.61;20.34;94914.28;5030463;28;20035;-77
2023/07/30 10:46:54;;;;;;;4.22;3.22;;;;;;;37.38;20.50;94900.94;4958472;28;20037;-77
2023/07/30 10:49:20;;;;;;;7.40;2.90;;;;;;;36.92;20.37;94897.13;4969052;28;20038;-77
2023/07/30 10:51:45;;;;;;;4.45;3.13;;;;;;;36.74;20.51;94881.19;4951653;28;20513;-78
2023/07/30 10:54:11;;;;;;;6.82;3.70;;;;;;;36.79;21.12;94893.63;4951454;28;20096;-77
2023/07/30 10:56:37;;;;;;;5.50;3.63;;;;;;;37.30;20.28;94892.16;4951653;28;20560;-77
2023/07/30 10:59:07;;;;;;;8.95;2.95;;;;;;;37.32;19.81;94886.13;4951443;28;20118;-77
2023/07/30 11:01:40;;;;;;;4.72;3.50;;;;;;;37.47;19.91;94882.38;4966801;28;20041;-77
2023/07/30 11:04:19;;;;;;;6.00;3.63;;;;;;;37.39;20.58;94897.69;4968570;28;20062;-77
2023/07/30 11:06:50;;;;;;;6.88;3.50;;;;;;;36.94;19.57;94867.00;4951010;28;20034;-78
2023/07/30 11:09:19;;;;;;;;;;;;;;;36.88;20.06;94883.41;4952218;28;20035;-77
2023/07/30 11:11:44;;;;;;;3.58;3.08;;;;;;;36.90;20.24;94841.53;4976179;28;19922;-78
2023/07/30 11:14:19;;;;;;;4.65;3.13;;;;;;;37.05;20.47;94872.94;4957155;28;20055;-77
2023/07/30 11:16:58;;;;;;;4.95;3.30;;;;;;;37.27;19.89;94864.63;4951525;28;20030;-77
2023/07/30 11:19:24;;;;;;;5.68;3.38;;;;;;;37.37;19.31;94844.84;4968580;28;20113;-77
2023/07/30 11:21:53;;;;;;;6.65;3.30;;;;;;;37.64;20.02;94851.72;4983688;28;20560;-77
2023/07/30 11:24:19;;;;;;;4.43;3.10;;;;;;;38.04;19.38;94851.66;4950919;28;20031;-78
2023/07/30 11:26:45;;;;;;;4.82;3.40;;;;;;;38.29;19.76;94853.41;4951736;28;20061;-77
2023/07/30 11:29:20;;;;;;;9.00;4.47;;;;;;;38.38;19.05;94834.78;4968896;28;20037;-77